createdAt,value
2019-03-22T00:01:55.693Z,60.97
2019-03-22T00:04:23.098Z,64.43
2019-03-22T00:06:50.524Z,56.13
2019-03-22T00:09:17.979Z,71.50
2019-03-22T00:11:45.369Z,57.87
2019-03-22T00:14:12.859Z,64.10
2019-03-22T00:16:40.334Z,69.27
2019-03-22T00:19:07.735Z,61.03
2019-03-22T00:21:35.245Z,60.13
2019-03-22T00:24:02.629Z,60.03
2019-03-22T00:26:32.460Z,71.77
2019-03-22T00:28:59.345Z,63.77
2019-03-22T00:31:26.785Z,63.47
2019-03-22T00:33:54.202Z,56.63
2019-03-22T00:36:21.660Z,61.83
2019-03-22T00:38:49.088Z,70.00
2019-03-22T00:41:16.497Z,62.27
2019-03-22T00:43:43.898Z,57.93
2019-03-22T00:46:11.259Z,62.00
2019-03-22T00:48:38.722Z,65.67
2019-03-22T00:51:06.118Z,63.70
2019-03-22T00:53:33.495Z,61.57
2019-03-22T00:56:00.892Z,60.27
2019-03-22T00:58:28.364Z,67.40
2019-03-22T01:00:55.738Z,62.13
2019-03-22T01:03:23.129Z,61.30
2019-03-22T01:05:50.512Z,56.60
2019-03-22T01:08:17.912Z,59.53
2019-03-22T01:10:45.305Z,57.63
2019-03-22T01:13:12.768Z,54.83
2019-03-22T01:15:40.165Z,52.67
2019-03-22T01:18:07.544Z,50.03
2019-03-22T01:20:34.936Z,51.87
2019-03-22T01:23:02.331Z,49.53
2019-03-22T01:25:29.714Z,47.27
2019-03-22T01:27:57.106Z,48.33
2019-03-22T01:30:24.482Z,50.80
2019-03-22T01:32:51.890Z,52.83
2019-03-22T01:35:19.282Z,52.23
2019-03-22T01:37:46.652Z,50.27
2019-03-22T01:40:15.042Z,50.03
2019-03-22T01:42:42.493Z,49.37
2019-03-22T01:45:10.845Z,46.07
2019-03-22T01:47:38.230Z,56.23
2019-03-22T01:50:06.680Z,53.27
2019-03-22T01:52:34.083Z,51.90
2019-03-22T01:55:01.441Z,47.70
2019-03-22T01:57:28.866Z,50.57
2019-03-22T01:59:56.266Z,50.33
2019-03-22T02:02:23.691Z,53.73
2019-03-22T02:04:51.066Z,45.77
2019-03-22T02:07:18.469Z,47.37
2019-03-22T02:09:45.884Z,48.30
2019-03-22T02:12:13.256Z,46.83
2019-03-22T02:14:40.657Z,47.07
2019-03-22T02:17:08.026Z,43.30
2019-03-22T02:19:35.419Z,44.20
2019-03-22T02:22:02.789Z,51.07
2019-03-22T02:24:30.194Z,48.13
2019-03-22T02:26:57.569Z,48.53
2019-03-22T02:29:24.963Z,51.40
2019-03-22T02:31:52.336Z,47.87
2019-03-22T02:34:19.708Z,63.60
2019-03-22T02:36:47.106Z,53.60
2019-03-22T02:39:14.637Z,54.57
2019-03-22T02:41:42.099Z,52.57
2019-03-22T02:44:09.580Z,53.80
2019-03-22T02:46:36.953Z,54.33
2019-03-22T02:49:04.356Z,50.93
2019-03-22T02:51:31.734Z,58.57
2019-03-22T02:53:59.116Z,55.70
2019-03-22T02:56:26.500Z,56.63
2019-03-22T02:58:53.881Z,54.93
2019-03-22T03:01:21.269Z,58.93
2019-03-22T03:03:48.687Z,59.97
2019-03-22T03:06:16.073Z,59.87
2019-03-22T03:08:43.465Z,69.20
2019-03-22T03:11:10.831Z,58.80
2019-03-22T03:13:38.223Z,57.63
2019-03-22T03:16:05.619Z,61.30
2019-03-22T03:18:32.981Z,55.33
2019-03-22T03:21:00.408Z,64.83
2019-03-22T03:23:27.772Z,69.43
2019-03-22T03:25:55.149Z,67.80
2019-03-22T03:28:36.163Z,68.40
2019-03-22T03:30:51.653Z,66.97
2019-03-22T03:33:19.185Z,69.47
2019-03-22T03:35:46.571Z,68.87
2019-03-22T03:38:13.953Z,72.37
2019-03-22T03:40:41.442Z,79.83
2019-03-22T03:43:08.818Z,77.37
2019-03-22T03:45:36.711Z,82.40
2019-03-22T03:48:05.767Z,83.43
2019-03-22T03:50:33.316Z,78.80
2019-03-22T03:53:00.690Z,77.60
2019-03-22T03:55:28.427Z,75.20
2019-03-22T03:57:55.811Z,80.77
2019-03-22T04:00:23.195Z,70.40
2019-03-22T04:02:50.581Z,76.97
2019-03-22T04:05:17.984Z,72.97
2019-03-22T04:07:45.437Z,68.97
2019-03-22T04:10:12.899Z,75.53
2019-03-22T04:12:40.357Z,74.77
2019-03-22T04:15:07.971Z,65.93
2019-03-22T04:17:35.433Z,71.80
2019-03-22T04:20:03.351Z,70.77
2019-03-22T04:22:30.780Z,76.33
2019-03-22T04:24:58.153Z,76.23
2019-03-22T04:27:25.566Z,74.83
2019-03-22T04:29:53.017Z,75.33
2019-03-22T04:32:20.395Z,73.03
2019-03-22T04:34:47.804Z,75.80
2019-03-22T04:37:15.174Z,70.67
2019-03-22T04:39:42.644Z,69.37
2019-03-22T04:42:10.065Z,72.97
2019-03-22T04:44:37.536Z,79.27
2019-03-22T04:47:05.695Z,63.77
2019-03-22T04:49:34.846Z,63.00
2019-03-22T04:52:02.913Z,60.43
2019-03-22T04:54:31.743Z,64.03
2019-03-22T04:56:59.285Z,66.27
2019-03-22T04:59:26.963Z,60.30
2019-03-22T05:01:55.915Z,62.83
2019-03-22T05:04:24.603Z,62.40
2019-03-22T05:06:52.169Z,64.57
2019-03-22T05:09:21.350Z,63.23
2019-03-22T05:11:48.775Z,64.50
2019-03-22T05:14:16.853Z,65.27
2019-03-22T05:16:45.785Z,60.57
2019-03-22T05:19:13.749Z,58.93
2019-03-22T05:21:42.186Z,63.70
2019-03-22T05:24:10.463Z,63.67
2019-03-22T05:26:38.917Z,65.57
2019-03-22T05:29:06.573Z,65.97
2019-03-22T05:31:35.509Z,68.80
2019-03-22T05:34:02.983Z,62.70
2019-03-22T05:36:30.367Z,61.00
2019-03-22T05:38:57.845Z,58.87
2019-03-22T05:41:25.213Z,66.43
2019-03-22T05:43:52.589Z,68.93
2019-03-22T05:46:19.999Z,70.57
2019-03-22T05:48:47.489Z,67.63
2019-03-22T05:51:14.944Z,64.63
2019-03-22T05:53:42.335Z,70.07
2019-03-22T05:56:09.729Z,62.00
2019-03-22T05:58:37.115Z,60.83
2019-03-22T06:01:04.495Z,54.03
2019-03-22T06:03:31.984Z,67.27
2019-03-22T06:05:59.480Z,67.50
2019-03-22T06:08:26.937Z,70.17
2019-03-22T06:10:54.335Z,66.80
2019-03-22T06:13:21.725Z,66.83
2019-03-22T06:15:49.161Z,61.13
2019-03-22T06:18:16.548Z,61.73
2019-03-22T06:20:43.997Z,66.17
2019-03-22T06:23:11.405Z,63.73
2019-03-22T06:25:38.810Z,70.13
2019-03-22T06:28:06.567Z,60.67
2019-03-22T06:30:33.991Z,64.40
2019-03-22T06:33:01.462Z,62.97
2019-03-22T06:35:28.837Z,61.63
2019-03-22T06:37:56.242Z,64.53
2019-03-22T06:40:23.677Z,55.97
2019-03-22T06:42:51.129Z,54.67
2019-03-22T06:45:18.520Z,56.60
2019-03-22T06:47:45.920Z,53.70
2019-03-22T06:50:13.335Z,63.60
2019-03-22T06:52:40.731Z,53.00
2019-03-22T06:55:08.141Z,56.43
2019-03-22T06:57:35.573Z,60.77
2019-03-22T07:00:06.703Z,55.43
2019-03-22T07:02:33.690Z,60.37
2019-03-22T07:05:01.175Z,69.30
2019-03-22T07:07:28.681Z,63.80
2019-03-22T07:09:56.084Z,57.87
2019-03-22T07:12:23.526Z,65.13
2019-03-22T07:14:50.991Z,61.27
2019-03-22T07:17:18.387Z,65.50
2019-03-22T07:19:45.780Z,79.53
2019-03-22T07:22:13.173Z,64.43
2019-03-22T07:24:40.564Z,58.27
2019-03-22T07:27:07.962Z,61.83
2019-03-22T07:29:35.375Z,68.40
2019-03-22T07:32:02.759Z,61.80
2019-03-22T07:34:30.137Z,73.83
2019-03-22T07:36:57.511Z,65.90
2019-03-22T07:39:24.979Z,65.27
2019-03-22T07:41:52.353Z,61.93
2019-03-22T07:44:19.738Z,56.43
2019-03-22T07:46:47.159Z,61.00
2019-03-22T07:49:14.541Z,56.70
2019-03-22T07:51:41.981Z,74.23
2019-03-22T07:54:09.406Z,55.83
2019-03-22T07:56:36.831Z,59.70
2019-03-22T07:59:04.325Z,51.03
2019-03-22T08:01:31.725Z,55.67
2019-03-22T08:03:59.198Z,50.33
2019-03-22T08:06:26.579Z,53.90
2019-03-22T08:08:54.081Z,50.53
2019-03-22T08:11:24.436Z,48.33
2019-03-22T08:13:50.559Z,51.90
2019-03-22T08:16:18.023Z,58.70
2019-03-22T08:18:45.397Z,51.27
2019-03-22T08:21:12.809Z,55.10
2019-03-22T08:23:40.246Z,56.13
2019-03-22T08:26:07.702Z,53.27
2019-03-22T08:28:35.233Z,64.43
2019-03-22T08:31:05.357Z,61.77
2019-03-22T08:33:31.767Z,51.40
2019-03-22T08:35:59.195Z,75.67
2019-03-22T08:38:26.637Z,65.47
2019-03-22T08:40:54.043Z,69.97
2019-03-22T08:43:21.439Z,62.33
2019-03-22T08:45:48.859Z,64.60
2019-03-22T08:48:16.308Z,65.97
2019-03-22T08:50:43.710Z,60.53
2019-03-22T08:53:11.099Z,62.70
2019-03-22T08:55:38.538Z,59.27
2019-03-22T08:58:06.035Z,57.17
2019-03-22T09:00:39.129Z,60.80
2019-03-22T09:03:02.708Z,77.17
2019-03-22T09:05:30.161Z,66.03
2019-03-22T09:07:57.581Z,59.43
2019-03-22T09:10:25.017Z,52.77
2019-03-22T09:12:52.614Z,49.47
2019-03-22T09:15:20.061Z,54.63
2019-03-22T09:17:47.521Z,54.03
2019-03-22T09:20:15.002Z,49.63
2019-03-22T09:22:42.410Z,53.60
2019-03-22T09:25:09.808Z,54.63
2019-03-22T09:27:37.198Z,54.53
2019-03-22T09:30:05.990Z,54.43
2019-03-22T09:32:33.401Z,58.47
2019-03-22T09:35:00.821Z,57.50
2019-03-22T09:37:28.241Z,50.00
2019-03-22T09:39:55.716Z,53.70
2019-03-22T09:42:23.128Z,58.67
2019-03-22T09:44:50.566Z,59.40
2019-03-22T09:47:17.982Z,52.40
2019-03-22T09:49:45.423Z,54.40
2019-03-22T09:52:12.851Z,56.43
2019-03-22T09:54:40.367Z,48.43
2019-03-22T09:57:07.807Z,55.23
2019-03-22T09:59:35.209Z,47.60
2019-03-22T10:02:02.607Z,52.13
2019-03-22T10:04:30.140Z,56.03
2019-03-22T10:06:58.435Z,53.87
2019-03-22T10:09:25.886Z,51.20
2019-03-22T10:11:53.376Z,53.83
2019-03-22T10:14:21.446Z,61.10
2019-03-22T10:16:49.015Z,63.47
2019-03-22T10:19:16.474Z,55.10
2019-03-22T10:21:43.954Z,59.67
2019-03-22T10:24:11.384Z,69.10
2019-03-22T10:26:38.782Z,54.17
2019-03-22T10:29:07.076Z,46.93
2019-03-22T10:31:37.355Z,55.17
2019-03-22T10:34:04.086Z,58.10
2019-03-22T10:36:31.517Z,61.87
2019-03-22T10:38:58.962Z,54.63
2019-03-22T10:41:26.399Z,64.37
2019-03-22T10:43:53.876Z,59.77
2019-03-22T10:46:21.311Z,61.83
2019-03-22T10:48:48.705Z,57.13
2019-03-22T10:51:16.153Z,63.40
2019-03-22T10:53:43.626Z,53.03
2019-03-22T10:56:11.080Z,73.80
2019-03-22T10:58:38.453Z,49.90
2019-03-22T11:01:08.264Z,54.67
2019-03-22T11:03:35.138Z,55.43
2019-03-22T11:06:02.595Z,56.37
2019-03-22T11:08:29.984Z,51.80
2019-03-22T11:10:57.372Z,50.57
2019-03-22T11:13:24.758Z,50.77
2019-03-22T11:15:52.148Z,55.07
2019-03-22T11:18:19.548Z,56.53
2019-03-22T11:20:46.956Z,57.03
2019-03-22T11:23:14.419Z,64.40
2019-03-22T11:25:41.885Z,69.23
2019-03-22T11:28:09.366Z,59.83
2019-03-22T11:30:36.828Z,67.73
2019-03-22T11:33:04.507Z,58.67
2019-03-22T11:35:31.878Z,55.67
2019-03-22T11:37:59.248Z,55.87
2019-03-22T11:40:26.658Z,57.00
2019-03-22T11:42:56.208Z,54.37
2019-03-22T11:45:24.629Z,63.57
2019-03-22T11:47:52.324Z,62.27
2019-03-22T11:50:19.710Z,65.90
2019-03-22T11:52:47.141Z,64.73
2019-03-22T11:55:14.806Z,64.77
2019-03-22T11:57:42.327Z,61.83
2019-03-22T12:00:11.296Z,54.80
2019-03-22T12:02:38.714Z,53.33
2019-03-22T12:05:06.585Z,46.87
2019-03-22T12:07:33.978Z,48.17
2019-03-22T12:10:01.392Z,53.70
2019-03-22T12:12:28.765Z,51.50
2019-03-22T12:14:56.146Z,52.53
2019-03-22T12:17:23.561Z,61.00
2019-03-22T12:19:50.960Z,67.30
2019-03-22T12:22:18.340Z,66.63
2019-03-22T12:24:45.751Z,67.97
2019-03-22T12:27:13.118Z,63.53
2019-03-22T12:29:40.559Z,71.93
2019-03-22T12:32:08.017Z,65.10
2019-03-22T12:34:35.457Z,63.57
2019-03-22T12:37:02.882Z,61.57
2019-03-22T12:39:30.343Z,64.27
2019-03-22T12:41:57.877Z,63.33
2019-03-22T12:44:25.265Z,73.53
2019-03-22T12:46:52.660Z,69.67
2019-03-22T12:49:20.064Z,64.60
2019-03-22T12:51:47.478Z,75.63
2019-03-22T12:54:14.957Z,72.90
2019-03-22T12:56:42.391Z,63.40
2019-03-22T12:59:09.797Z,70.77
2019-03-22T13:01:37.170Z,77.67
2019-03-22T13:04:04.653Z,64.00
2019-03-22T13:06:32.111Z,59.00
2019-03-22T13:08:59.498Z,65.07
2019-03-22T13:11:26.916Z,68.23
2019-03-22T13:13:54.319Z,94.80
2019-03-22T13:16:21.734Z,60.97
2019-03-22T13:18:50.324Z,62.20
2019-03-22T13:21:18.007Z,76.77
2019-03-22T13:23:45.407Z,83.93
2019-03-22T13:26:12.807Z,75.47
2019-03-22T13:28:40.246Z,64.63
2019-03-22T13:31:07.724Z,58.87
2019-03-22T13:33:35.179Z,59.53
2019-03-22T13:36:02.589Z,61.10
2019-03-22T13:38:29.957Z,55.80
2019-03-22T13:40:57.384Z,53.87
2019-03-22T13:43:24.815Z,54.90
2019-03-22T13:45:52.243Z,55.03
2019-03-22T13:48:19.635Z,50.23
2019-03-22T13:50:47.094Z,48.27
2019-03-22T13:53:14.471Z,48.07
2019-03-22T13:55:41.889Z,47.00
2019-03-22T13:58:09.277Z,49.00
2019-03-22T14:00:36.685Z,42.67
2019-03-22T14:03:04.065Z,50.27
2019-03-22T14:05:31.477Z,46.87
2019-03-22T14:08:01.839Z,41.13
2019-03-22T14:10:30.119Z,45.80
2019-03-22T14:12:58.545Z,42.33
2019-03-22T14:15:25.988Z,41.47
2019-03-22T14:17:53.403Z,39.37
2019-03-22T14:20:20.775Z,42.23
2019-03-22T14:22:48.186Z,38.07
2019-03-22T14:25:15.577Z,49.57
2019-03-22T14:27:42.990Z,42.87
2019-03-22T14:30:10.508Z,40.93
2019-03-22T14:32:37.913Z,43.30
2019-03-22T14:35:07.168Z,40.63
2019-03-22T14:37:34.637Z,47.20
2019-03-22T14:40:02.108Z,38.27
2019-03-22T14:42:29.516Z,43.50
2019-03-22T14:44:56.888Z,43.60
2019-03-22T14:47:24.303Z,53.17
2019-03-22T14:49:51.778Z,44.80
2019-03-22T14:52:19.142Z,40.30
2019-03-22T14:54:46.576Z,41.47
2019-03-22T14:57:14.026Z,40.10
2019-03-22T14:59:41.495Z,40.60
2019-03-22T15:02:10.840Z,41.63
2019-03-22T15:04:38.003Z,44.07
2019-03-22T15:07:05.386Z,42.80
2019-03-22T15:09:32.837Z,39.27
2019-03-22T15:12:00.247Z,39.30
2019-03-22T15:14:31.950Z,42.67
2019-03-22T15:17:12.556Z,36.53
2019-03-22T15:19:50.311Z,38.10
2019-03-22T15:22:22.361Z,50.97
2019-03-22T15:25:00.302Z,38.37
2019-03-22T15:27:41.492Z,44.50
2019-03-22T15:30:25.850Z,34.47
2019-03-22T15:32:54.924Z,38.03
2019-03-22T15:38:09.822Z,35.87
2019-03-22T15:40:37.299Z,39.57
2019-03-22T15:43:04.699Z,43.20
2019-03-22T15:45:32.117Z,42.50
2019-03-22T15:48:00.081Z,42.93
2019-03-22T15:50:28.008Z,36.73
2019-03-22T15:52:55.370Z,42.10
2019-03-22T15:55:22.763Z,36.63
2019-03-22T15:57:50.156Z,38.73
2019-03-22T16:00:18.285Z,40.23
2019-03-22T16:02:45.683Z,40.50
2019-03-22T16:05:13.448Z,39.70
2019-03-22T16:07:40.828Z,40.80
2019-03-22T16:10:10.040Z,44.17
2019-03-22T16:12:37.425Z,39.80
2019-03-22T16:15:06.270Z,35.77
2019-03-22T16:17:33.676Z,40.57
2019-03-22T16:20:01.065Z,38.60
2019-03-22T16:22:28.439Z,37.37
2019-03-22T16:24:55.843Z,35.70
2019-03-22T16:27:23.216Z,40.77
2019-03-22T16:29:50.636Z,40.40
2019-03-22T16:32:18.002Z,39.67
2019-03-22T16:34:45.429Z,41.30
2019-03-22T16:37:12.862Z,38.43
2019-03-22T16:39:40.305Z,34.13
2019-03-22T16:42:07.717Z,33.80
2019-03-22T16:44:35.176Z,35.57
2019-03-22T16:47:02.579Z,38.33
2019-03-22T16:49:29.991Z,34.03
2019-03-22T16:51:57.415Z,36.97
2019-03-22T16:54:24.849Z,40.30
2019-03-22T16:56:52.253Z,37.50
2019-03-22T16:59:19.644Z,38.13
2019-03-22T17:01:47.014Z,34.40
2019-03-22T17:04:14.411Z,43.63
2019-03-22T17:06:41.779Z,47.73
2019-03-22T17:09:10.963Z,41.87
2019-03-22T17:11:38.434Z,41.53
2019-03-22T17:14:05.799Z,38.87
2019-03-22T17:16:33.194Z,31.83
2019-03-22T17:19:00.636Z,42.60
2019-03-22T17:21:28.034Z,42.63
2019-03-22T17:23:55.456Z,41.20
2019-03-22T17:26:22.861Z,40.70
2019-03-22T17:28:50.269Z,40.27
2019-03-22T17:31:17.907Z,38.30
2019-03-22T17:33:45.308Z,43.43
2019-03-22T17:36:12.782Z,41.93
2019-03-22T17:38:40.253Z,40.67
2019-03-22T17:41:07.632Z,40.43
2019-03-22T17:43:35.077Z,44.10
2019-03-22T17:46:02.487Z,62.80
2019-03-22T17:48:29.946Z,41.73
2019-03-22T17:50:57.372Z,40.70
2019-03-22T17:53:24.857Z,43.17
2019-03-22T17:55:52.272Z,51.67
2019-03-22T17:58:19.630Z,57.43
2019-03-22T18:00:47.374Z,46.20
2019-03-22T18:03:14.764Z,49.67
2019-03-22T18:05:42.178Z,51.93
2019-03-22T18:08:09.558Z,50.43
2019-03-22T18:10:36.955Z,58.70
2019-03-22T18:13:04.419Z,51.23
2019-03-22T18:15:31.825Z,44.13
2019-03-22T18:17:59.197Z,43.20
2019-03-22T18:20:26.578Z,46.87
2019-03-22T18:22:53.994Z,48.00
2019-03-22T18:25:21.380Z,46.43
2019-03-22T18:27:48.766Z,54.27
2019-03-22T18:30:16.147Z,50.90
2019-03-22T18:32:43.568Z,60.30
2019-03-22T18:35:11.081Z,50.23
2019-03-22T18:37:38.466Z,46.03
2019-03-22T18:40:07.399Z,54.30
2019-03-22T18:42:34.834Z,53.80
2019-03-22T18:45:02.520Z,51.20
2019-03-22T18:47:29.931Z,50.07
2019-03-22T18:49:57.353Z,53.37
2019-03-22T18:52:24.705Z,54.73
2019-03-22T18:54:52.102Z,56.60
2019-03-22T18:57:19.501Z,67.53
2019-03-22T18:59:46.882Z,50.70
2019-03-22T19:02:14.284Z,61.80
2019-03-22T19:04:44.380Z,63.67
2019-03-22T19:07:10.801Z,57.03
2019-03-22T19:09:38.170Z,66.13
2019-03-22T19:12:05.561Z,64.37
2019-03-22T19:14:33.032Z,67.07
2019-03-22T19:17:00.539Z,66.33
2019-03-22T19:19:27.976Z,63.70
2019-03-22T19:21:55.375Z,65.90
2019-03-22T19:24:22.742Z,64.40
2019-03-22T19:26:50.138Z,70.00
2019-03-22T19:29:17.525Z,66.70
2019-03-22T19:31:44.912Z,70.70
2019-03-22T19:34:12.323Z,69.27
2019-03-22T19:36:39.728Z,68.00
2019-03-22T19:39:07.111Z,81.23
2019-03-22T19:41:34.893Z,74.87
2019-03-22T19:44:02.292Z,66.50
2019-03-22T19:46:29.690Z,74.60
2019-03-22T19:48:57.079Z,82.83
2019-03-22T19:51:24.527Z,81.60
2019-03-22T19:53:52.001Z,78.67
2019-03-22T19:56:19.383Z,92.30
2019-03-22T19:58:46.781Z,80.57
2019-03-22T20:01:14.219Z,75.10
2019-03-22T20:03:41.603Z,87.27
2019-03-22T20:06:09.057Z,79.97
2019-03-22T20:08:36.525Z,85.23
2019-03-22T20:11:03.952Z,86.50
2019-03-22T20:13:31.428Z,80.13
2019-03-22T20:15:58.840Z,78.03
2019-03-22T20:18:26.216Z,80.50
2019-03-22T20:20:53.628Z,79.10
2019-03-22T20:23:20.995Z,82.27
2019-03-22T20:25:48.383Z,85.33
2019-03-22T20:28:15.829Z,84.47
2019-03-22T20:30:43.276Z,83.57
2019-03-22T20:33:10.651Z,91.13
2019-03-22T20:35:38.071Z,71.73
2019-03-22T20:38:05.501Z,89.70
2019-03-22T20:40:32.905Z,77.63
2019-03-22T20:43:00.298Z,74.63
2019-03-22T20:45:27.787Z,78.63
2019-03-22T20:47:55.148Z,86.53
2019-03-22T20:50:22.553Z,78.00
2019-03-22T20:52:50.104Z,79.83
2019-03-22T20:55:17.479Z,83.07
2019-03-22T20:57:44.908Z,78.47
2019-03-22T21:00:12.956Z,77.97
2019-03-22T21:02:40.333Z,71.30
2019-03-22T21:05:07.948Z,86.07
2019-03-22T21:07:35.378Z,81.87
2019-03-22T21:10:02.952Z,80.63
2019-03-22T21:12:30.399Z,84.30
2019-03-22T21:14:57.791Z,88.10
2019-03-22T21:17:25.171Z,88.87
2019-03-22T21:19:52.547Z,81.93
2019-03-22T21:22:19.953Z,85.03
2019-03-22T21:24:47.361Z,87.47
2019-03-22T21:27:15.999Z,91.97
2019-03-22T21:29:44.568Z,93.07
2019-03-22T21:32:12.100Z,92.10
2019-03-22T21:34:39.508Z,93.80
2019-03-22T21:37:07.070Z,85.67
2019-03-22T21:39:34.522Z,90.70
2019-03-22T21:42:01.921Z,83.60
2019-03-22T21:44:29.703Z,91.63
2019-03-22T21:46:57.210Z,87.20
2019-03-22T21:49:24.599Z,88.03
2019-03-22T21:51:51.995Z,98.10
2019-03-22T21:54:19.512Z,89.70
2019-03-22T21:56:46.905Z,91.77
2019-03-22T21:59:14.336Z,95.50
2019-03-22T22:01:41.738Z,92.53
2019-03-22T22:04:09.153Z,99.37
2019-03-22T22:06:36.548Z,90.83
2019-03-22T22:09:04.948Z,95.03
2019-03-22T22:11:32.346Z,92.07
2019-03-22T22:13:59.759Z,95.30
2019-03-22T22:16:27.142Z,102.00
2019-03-22T22:18:54.524Z,99.90
2019-03-22T22:21:21.936Z,94.90
2019-03-22T22:23:49.371Z,95.23
2019-03-22T22:26:16.815Z,96.10
2019-03-22T22:28:44.197Z,102.13
2019-03-22T22:31:11.596Z,101.77
2019-03-22T22:33:38.972Z,103.83
2019-03-22T22:36:06.354Z,102.83
2019-03-22T22:38:33.758Z,92.07
2019-03-22T22:41:01.144Z,90.23
2019-03-22T22:43:28.532Z,88.43
2019-03-22T22:45:55.928Z,98.23
2019-03-22T22:48:23.303Z,100.57
2019-03-22T22:50:50.716Z,101.20
2019-03-22T22:53:18.096Z,101.37
2019-03-22T22:55:45.515Z,103.87
2019-03-22T22:58:12.956Z,103.90
2019-03-22T23:00:40.528Z,99.23
2019-03-22T23:03:07.963Z,98.97
2019-03-22T23:05:35.588Z,108.87
2019-03-22T23:08:03.036Z,106.10
2019-03-22T23:10:30.493Z,106.60
2019-03-22T23:12:57.912Z,117.47
2019-03-22T23:15:25.338Z,102.57
2019-03-22T23:17:53.084Z,110.23
2019-03-22T23:20:20.490Z,113.87
2019-03-22T23:22:47.936Z,121.47
2019-03-22T23:25:15.314Z,110.60
2019-03-22T23:27:42.795Z,119.43
2019-03-22T23:30:11.348Z,113.90
2019-03-22T23:32:38.830Z,104.43
2019-03-22T23:35:06.774Z,110.83
2019-03-22T23:37:34.178Z,110.37
2019-03-22T23:40:01.559Z,107.33
2019-03-22T23:42:28.990Z,115.93
2019-03-22T23:44:56.419Z,116.20
2019-03-22T23:47:23.873Z,111.33
2019-03-22T23:49:51.261Z,127.00
2019-03-22T23:52:18.799Z,117.83
2019-03-22T23:54:46.219Z,103.87
2019-03-22T23:57:13.619Z,119.60
2019-03-22T23:59:41.050Z,114.93
